createdAt,value
2018-07-11T00:00:49.798Z,0
2018-07-11T00:01:49.471Z,0
2018-07-11T00:02:49.708Z,0
2018-07-11T00:03:49.960Z,0
2018-07-11T00:04:49.713Z,0
2018-07-11T00:05:50.009Z,0
2018-07-11T00:06:49.967Z,0
2018-07-11T00:07:49.442Z,0
2018-07-11T00:08:49.185Z,0
2018-07-11T00:09:49.183Z,0
2018-07-11T00:10:49.551Z,0
2018-07-11T00:11:49.706Z,0
2018-07-11T00:12:49.697Z,0
2018-07-11T00:13:49.722Z,0
2018-07-11T00:14:49.444Z,0
2018-07-11T00:15:49.720Z,0
2018-07-11T00:16:49.934Z,0
2018-07-11T00:17:49.680Z,0
2018-07-11T00:18:49.952Z,0
2018-07-11T00:19:49.174Z,0
2018-07-11T00:20:49.946Z,0
2018-07-11T00:21:49.946Z,0
2018-07-11T00:22:49.680Z,0
2018-07-11T00:23:49.426Z,0
2018-07-11T00:24:49.683Z,0
2018-07-11T00:25:49.987Z,0
2018-07-11T00:26:49.422Z,0
2018-07-11T00:27:49.683Z,0
2018-07-11T00:28:49.430Z,0
2018-07-11T00:29:49.669Z,0
2018-07-11T00:30:49.469Z,0
2018-07-11T00:31:49.924Z,0
2018-07-11T00:32:49.418Z,0
2018-07-11T00:33:49.683Z,0
2018-07-11T00:34:49.916Z,0
2018-07-11T00:35:49.668Z,0
2018-07-11T00:36:49.721Z,0
2018-07-11T00:37:49.676Z,0
2018-07-11T00:38:49.940Z,0
2018-07-11T00:39:49.921Z,0
2018-07-11T00:40:49.497Z,0
2018-07-11T00:41:49.670Z,0
2018-07-11T00:42:49.428Z,0
2018-07-11T00:43:49.699Z,0
2018-07-11T00:44:49.655Z,0
2018-07-11T00:45:49.757Z,0
2018-07-11T00:46:49.914Z,0
2018-07-11T00:47:50.479Z,0
2018-07-11T00:48:49.673Z,0
2018-07-11T00:49:49.154Z,0
2018-07-11T00:50:49.926Z,0
2018-07-11T00:51:49.662Z,0
2018-07-11T00:52:49.179Z,0
2018-07-11T00:53:49.677Z,0
2018-07-11T00:54:49.678Z,0
2018-07-11T00:55:49.670Z,0
2018-07-11T00:56:49.665Z,0
2018-07-11T00:57:49.433Z,0
2018-07-11T00:58:49.662Z,0
2018-07-11T00:59:49.643Z,0
2018-07-11T01:00:49.959Z,0
2018-07-11T01:01:49.649Z,0
2018-07-11T01:02:49.655Z,0
2018-07-11T01:03:49.419Z,0
2018-07-11T01:04:49.663Z,0
2018-07-11T01:05:49.217Z,0
2018-07-11T01:06:49.658Z,0
2018-07-11T01:07:49.655Z,0
2018-07-11T01:08:49.921Z,0
2018-07-11T01:09:49.908Z,0
2018-07-11T01:10:49.410Z,0
2018-07-11T01:11:49.399Z,0
2018-07-11T01:12:49.398Z,0
2018-07-11T01:13:49.666Z,0
2018-07-11T01:14:49.458Z,0
2018-07-11T01:15:49.949Z,0
2018-07-11T01:16:49.656Z,0
2018-07-11T01:17:49.399Z,0
2018-07-11T01:18:49.657Z,0
2018-07-11T01:19:49.908Z,0
2018-07-11T01:20:49.895Z,0
2018-07-11T01:21:49.132Z,0
2018-07-11T01:22:49.905Z,0
2018-07-11T01:23:49.911Z,0
2018-07-11T01:24:49.900Z,0
2018-07-11T01:25:49.404Z,0
2018-07-11T01:26:49.890Z,0
2018-07-11T01:27:49.409Z,0
2018-07-11T01:28:49.390Z,0
2018-07-11T01:29:49.395Z,0
2018-07-11T01:30:49.686Z,0
2018-07-11T01:31:49.899Z,0
2018-07-11T01:32:49.656Z,0
2018-07-11T01:33:49.647Z,0
2018-07-11T01:34:49.649Z,0
2018-07-11T01:35:49.960Z,0
2018-07-11T01:36:49.394Z,0
2018-07-11T01:37:49.659Z,0
2018-07-11T01:38:49.666Z,0
2018-07-11T01:39:49.647Z,0
2018-07-11T01:40:49.755Z,0
2018-07-11T01:41:49.891Z,0
2018-07-11T01:42:49.920Z,0
2018-07-11T01:43:49.646Z,0
2018-07-11T01:44:49.649Z,0
2018-07-11T01:45:49.943Z,0
2018-07-11T01:46:49.893Z,0
2018-07-11T01:47:49.907Z,0
2018-07-11T01:48:49.915Z,0
2018-07-11T01:49:49.557Z,0
2018-07-11T01:50:49.910Z,0
2018-07-11T01:51:49.888Z,0
2018-07-11T01:52:49.386Z,0
2018-07-11T01:53:49.387Z,0
2018-07-11T01:54:49.646Z,0
2018-07-11T01:55:49.406Z,0
2018-07-11T01:56:49.644Z,0
2018-07-11T01:57:49.889Z,0
2018-07-11T01:58:49.664Z,0
2018-07-11T01:59:49.638Z,0
2018-07-11T02:00:49.664Z,0
2018-07-11T02:01:49.652Z,0
2018-07-11T02:02:49.641Z,0
2018-07-11T02:03:49.653Z,0
2018-07-11T02:04:49.629Z,0
2018-07-11T02:05:49.726Z,0
2018-07-11T02:06:49.391Z,0
2018-07-11T02:07:49.655Z,0
2018-07-11T02:08:49.650Z,0
2018-07-11T02:09:49.393Z,0
2018-07-11T02:10:49.701Z,0
2018-07-11T02:11:49.627Z,0
2018-07-11T02:12:49.893Z,0
2018-07-11T02:13:49.637Z,0
2018-07-11T02:14:49.625Z,0
2018-07-11T02:15:49.881Z,0
2018-07-11T02:16:49.645Z,0
2018-07-11T02:17:49.886Z,0
2018-07-11T02:18:49.378Z,0
2018-07-11T02:19:49.628Z,0
2018-07-11T02:20:49.409Z,0
2018-07-11T02:21:49.627Z,0
2018-07-11T02:22:49.388Z,0
2018-07-11T02:23:49.418Z,0
2018-07-11T02:24:49.141Z,0
2018-07-11T02:25:49.707Z,0
2018-07-11T02:26:49.636Z,0
2018-07-11T02:27:49.875Z,0
2018-07-11T02:28:50.205Z,0
2018-07-11T02:29:49.629Z,0
2018-07-11T02:30:49.696Z,0
2018-07-11T02:31:49.894Z,0
2018-07-11T02:32:49.644Z,0
2018-07-11T02:33:49.637Z,0
2018-07-11T02:34:49.373Z,0
2018-07-11T02:35:49.920Z,0
2018-07-11T02:36:49.898Z,0
2018-07-11T02:37:49.922Z,0
2018-07-11T02:38:49.883Z,0
2018-07-11T02:39:49.885Z,0
2018-07-11T02:40:50.075Z,0
2018-07-11T02:41:49.881Z,0
2018-07-11T02:42:49.627Z,0
2018-07-11T02:43:49.894Z,0
2018-07-11T02:44:49.905Z,0
2018-07-11T02:45:49.729Z,0
2018-07-11T02:46:49.662Z,0
2018-07-11T02:47:49.642Z,0
2018-07-11T02:48:49.625Z,0
2018-07-11T02:49:49.886Z,0
2018-07-11T02:50:49.667Z,0
2018-07-11T02:51:49.629Z,0
2018-07-11T02:52:49.897Z,0
2018-07-11T02:53:49.944Z,0
2018-07-11T02:54:49.874Z,0
2018-07-11T02:55:49.383Z,0
2018-07-11T02:56:49.633Z,0
2018-07-11T02:57:49.663Z,0
2018-07-11T02:58:49.376Z,0
2018-07-11T02:59:49.629Z,0
2018-07-11T03:00:49.653Z,0
2018-07-11T03:01:49.630Z,0
2018-07-11T03:02:49.876Z,0
2018-07-11T03:03:49.876Z,4
2018-07-11T03:04:49.865Z,4
2018-07-11T03:05:49.952Z,4
2018-07-11T03:06:49.613Z,0
2018-07-11T03:07:49.616Z,4
2018-07-11T03:08:49.885Z,4
2018-07-11T03:09:49.629Z,4
2018-07-11T03:10:49.932Z,8
2018-07-11T03:11:49.627Z,8
2018-07-11T03:12:49.626Z,8
2018-07-11T03:13:49.630Z,8
2018-07-11T03:14:49.882Z,8
2018-07-11T03:15:49.378Z,12
2018-07-11T03:16:49.868Z,12
2018-07-11T03:17:49.898Z,12
2018-07-11T03:18:49.377Z,16
2018-07-11T03:19:49.870Z,16
2018-07-11T03:20:49.705Z,12
2018-07-11T03:21:49.625Z,12
2018-07-11T03:22:49.378Z,12
2018-07-11T03:23:49.887Z,12
2018-07-11T03:24:49.622Z,16
2018-07-11T03:25:49.358Z,16
2018-07-11T03:26:49.871Z,20
2018-07-11T03:27:49.623Z,20
2018-07-11T03:28:49.367Z,20
2018-07-11T03:29:49.622Z,24
2018-07-11T03:30:49.876Z,28
2018-07-11T03:31:49.627Z,28
2018-07-11T03:32:49.650Z,32
2018-07-11T03:33:49.624Z,40
2018-07-11T03:34:49.631Z,48
2018-07-11T03:35:49.378Z,52
2018-07-11T03:36:49.629Z,56
2018-07-11T03:37:49.619Z,60
2018-07-11T03:38:49.376Z,68
2018-07-11T03:39:49.380Z,76
2018-07-11T03:40:49.417Z,88
2018-07-11T03:41:49.369Z,100
2018-07-11T03:42:49.609Z,112
2018-07-11T03:43:49.633Z,128
2018-07-11T03:44:49.877Z,156
2018-07-11T03:45:49.625Z,172
2018-07-11T03:46:49.863Z,188
2018-07-11T03:47:49.355Z,204
2018-07-11T03:48:49.920Z,216
2018-07-11T03:49:49.618Z,228
2018-07-11T03:50:49.875Z,252
2018-07-11T03:51:49.626Z,280
2018-07-11T03:52:49.360Z,304
2018-07-11T03:53:49.792Z,324
2018-07-11T03:54:49.629Z,344
2018-07-11T03:55:49.363Z,352
2018-07-11T03:56:49.367Z,356
2018-07-11T03:57:49.864Z,356
2018-07-11T03:58:49.885Z,364
2018-07-11T03:59:49.120Z,360
2018-07-11T04:00:49.633Z,356
2018-07-11T04:01:49.860Z,348
2018-07-11T04:02:49.390Z,328
2018-07-11T04:03:49.856Z,320
2018-07-11T04:04:49.830Z,320
2018-07-11T04:05:49.373Z,328
2018-07-11T04:06:49.615Z,336
2018-07-11T04:07:49.857Z,344
2018-07-11T04:08:49.634Z,360
2018-07-11T04:09:49.594Z,376
2018-07-11T04:10:49.864Z,388
2018-07-11T04:11:49.604Z,404
2018-07-11T04:12:49.854Z,408
2018-07-11T04:13:49.100Z,404
2018-07-11T04:14:49.596Z,412
2018-07-11T04:15:49.595Z,424
2018-07-11T04:16:49.631Z,432
2018-07-11T04:17:49.114Z,444
2018-07-11T04:18:49.111Z,460
2018-07-11T04:19:49.856Z,480
2018-07-11T04:20:49.855Z,488
2018-07-11T04:21:49.343Z,484
2018-07-11T04:22:49.872Z,476
2018-07-11T04:23:49.619Z,460
2018-07-11T04:24:49.601Z,432
2018-07-11T04:25:49.861Z,392
2018-07-11T04:26:49.867Z,376
2018-07-11T04:27:49.606Z,380
2018-07-11T04:28:49.790Z,392
2018-07-11T04:29:49.613Z,424
2018-07-11T04:30:49.595Z,460
2018-07-11T04:31:49.350Z,520
2018-07-11T04:32:49.340Z,584
2018-07-11T04:33:49.598Z,652
2018-07-11T04:34:49.743Z,704
2018-07-11T04:35:49.600Z,728
2018-07-11T04:36:49.611Z,748
2018-07-11T04:37:49.597Z,752
2018-07-11T04:38:49.845Z,740
2018-07-11T04:39:49.350Z,732
2018-07-11T04:40:49.893Z,720
2018-07-11T04:41:49.593Z,704
2018-07-11T04:42:49.652Z,676
2018-07-11T04:43:49.346Z,648
2018-07-11T04:44:49.620Z,628
2018-07-11T04:45:49.924Z,628
2018-07-11T04:46:49.848Z,640
2018-07-11T04:47:49.851Z,656
2018-07-11T04:48:49.606Z,660
2018-07-11T04:49:49.594Z,672
2018-07-11T04:50:49.889Z,708
2018-07-11T04:51:49.346Z,756
2018-07-11T04:52:50.149Z,804
2018-07-11T04:53:49.351Z,836
2018-07-11T04:54:49.853Z,868
2018-07-11T04:55:49.591Z,908
2018-07-11T04:56:49.096Z,944
2018-07-11T04:57:49.597Z,996
2018-07-11T04:58:49.679Z,1068
2018-07-11T04:59:49.857Z,1128
2018-07-11T05:00:49.597Z,1144
2018-07-11T05:01:49.336Z,1088
2018-07-11T05:02:49.852Z,996
2018-07-11T05:03:49.349Z,948
2018-07-11T05:04:49.671Z,932
2018-07-11T05:05:49.855Z,932
2018-07-11T05:06:49.590Z,952
2018-07-11T05:07:49.862Z,984
2018-07-11T05:08:49.593Z,1036
2018-07-11T05:09:49.594Z,1120
2018-07-11T05:10:49.723Z,1204
2018-07-11T05:11:49.591Z,1236
2018-07-11T05:12:49.627Z,1228
2018-07-11T05:13:49.871Z,1236
2018-07-11T05:14:49.597Z,1256
2018-07-11T05:15:49.869Z,1248
2018-07-11T05:16:49.855Z,1204
2018-07-11T05:17:49.342Z,1168
2018-07-11T05:18:49.870Z,1124
2018-07-11T05:19:49.356Z,1040
2018-07-11T05:20:49.876Z,988
2018-07-11T05:21:49.855Z,972
2018-07-11T05:22:49.593Z,964
2018-07-11T05:23:49.599Z,964
2018-07-11T05:24:49.596Z,940
2018-07-11T05:25:49.619Z,916
2018-07-11T05:26:49.867Z,884
2018-07-11T05:27:49.767Z,860
2018-07-11T05:28:49.862Z,860
2018-07-11T05:29:49.872Z,864
2018-07-11T05:30:49.915Z,844
2018-07-11T05:31:49.841Z,864
2018-07-11T05:32:49.594Z,896
2018-07-11T05:33:49.872Z,860
2018-07-11T05:34:49.586Z,784
2018-07-11T05:35:49.870Z,740
2018-07-11T05:36:49.847Z,676
2018-07-11T05:37:49.589Z,616
2018-07-11T05:38:49.587Z,592
2018-07-11T05:39:49.851Z,596
2018-07-11T05:40:49.877Z,596
2018-07-11T05:41:49.592Z,596
2018-07-11T05:42:49.342Z,592
2018-07-11T05:43:49.342Z,600
2018-07-11T05:44:49.848Z,648
2018-07-11T05:45:49.668Z,740
2018-07-11T05:46:49.333Z,876
2018-07-11T05:47:49.865Z,1032
2018-07-11T05:48:49.602Z,1236
2018-07-11T05:49:49.338Z,1468
2018-07-11T05:50:49.595Z,1672
2018-07-11T05:51:49.596Z,1896
2018-07-11T05:52:49.589Z,2108
2018-07-11T05:53:49.353Z,2300
2018-07-11T05:54:49.851Z,2488
2018-07-11T05:55:50.074Z,2752
2018-07-11T05:56:49.612Z,3172
2018-07-11T05:57:49.602Z,3728
2018-07-11T05:58:49.332Z,4228
2018-07-11T05:59:50.008Z,4760
2018-07-11T06:00:49.900Z,5332
2018-07-11T06:01:49.336Z,5796
2018-07-11T06:02:50.170Z,6100
2018-07-11T06:03:49.588Z,6248
2018-07-11T06:04:49.850Z,6416
2018-07-11T06:05:49.695Z,6724
2018-07-11T06:06:49.594Z,7028
2018-07-11T06:07:49.589Z,7288
2018-07-11T06:08:49.601Z,7520
2018-07-11T06:09:49.850Z,7480
2018-07-11T06:10:49.351Z,7024
2018-07-11T06:11:49.335Z,6428
2018-07-11T06:12:49.846Z,6376
2018-07-11T06:13:49.901Z,5956
2018-07-11T06:14:49.845Z,6080
2018-07-11T06:24:31.066Z,6008
2018-07-11T06:25:30.541Z,6016
2018-07-11T06:26:31.052Z,7040
2018-07-11T06:27:31.048Z,6440
2018-07-11T06:28:30.800Z,5616
2018-07-11T06:29:31.298Z,5436
2018-07-11T06:30:31.314Z,5452
2018-07-11T06:31:30.556Z,5588
2018-07-11T06:32:31.307Z,5840
2018-07-11T06:33:31.277Z,5940
2018-07-11T06:34:30.534Z,5948
2018-07-11T06:35:31.040Z,6100
2018-07-11T06:36:31.300Z,6296
2018-07-11T06:37:31.273Z,6404
2018-07-11T06:38:30.779Z,6776
2018-07-11T06:39:31.333Z,7592
2018-07-11T06:40:31.294Z,8928
2018-07-11T06:41:30.544Z,9180
2018-07-11T06:42:30.529Z,8732
2018-07-11T06:43:31.045Z,8228
2018-07-11T06:44:31.217Z,7996
2018-07-11T06:45:30.782Z,8008
2018-07-11T06:46:31.291Z,9308
2018-07-11T06:47:30.551Z,8500
2018-07-11T06:48:31.296Z,7916
2018-07-11T06:49:31.048Z,7656
2018-07-11T06:50:31.053Z,7656
2018-07-11T06:51:31.061Z,8056
2018-07-11T06:52:30.797Z,8344
2018-07-11T06:53:31.062Z,8176
2018-07-11T06:54:30.792Z,7760
2018-07-11T06:55:31.046Z,7436
2018-07-11T06:56:31.313Z,7364
2018-07-11T06:57:31.401Z,6752
2018-07-11T06:58:31.071Z,6496
2018-07-11T06:59:30.812Z,6232
2018-07-11T07:00:30.566Z,6276
2018-07-11T07:01:31.334Z,6596
2018-07-11T07:02:31.316Z,6864
2018-07-11T07:03:31.149Z,7044
2018-07-11T07:04:31.090Z,7148
2018-07-11T07:05:31.339Z,7288
2018-07-11T07:06:30.816Z,7576
2018-07-11T07:07:30.825Z,8052
2018-07-11T07:08:30.818Z,8580
2018-07-11T07:09:31.098Z,9228
2018-07-11T07:10:31.075Z,10392
2018-07-11T07:11:31.326Z,14352
2018-07-11T07:12:31.348Z,9896
2018-07-11T07:13:31.082Z,9692
2018-07-11T07:14:30.844Z,9824
2018-07-11T07:15:31.075Z,9852
2018-07-11T07:16:31.207Z,9924
2018-07-11T07:17:30.834Z,10444
2018-07-11T07:18:30.825Z,13552
2018-07-11T07:19:31.349Z,11596
2018-07-11T07:20:31.372Z,12136
2018-07-11T07:21:30.838Z,8648
2018-07-11T07:22:31.580Z,7820
2018-07-11T07:23:30.598Z,7576
2018-07-11T07:24:31.088Z,7232
2018-07-11T07:25:30.863Z,7024
2018-07-11T07:26:30.840Z,7228
2018-07-11T07:27:31.379Z,7744
2018-07-11T07:28:31.351Z,8200
2018-07-11T07:29:30.846Z,8608
2018-07-11T07:30:31.398Z,9000
2018-07-11T07:31:30.867Z,8932
2018-07-11T07:32:31.372Z,10024
2018-07-11T07:33:31.108Z,8628
2018-07-11T07:34:30.870Z,8600
2018-07-11T07:35:31.152Z,8468
2018-07-11T07:36:31.355Z,8164
2018-07-11T07:37:31.127Z,7840
2018-07-11T07:38:31.130Z,7996
2018-07-11T07:39:30.880Z,8320
2018-07-11T07:40:31.381Z,8548
2018-07-11T07:41:31.389Z,8992
2018-07-11T07:42:31.390Z,9208
2018-07-11T07:43:31.135Z,9496
2018-07-11T07:44:31.386Z,9736
2018-07-11T07:45:30.887Z,9932
2018-07-11T07:46:31.129Z,10280
2018-07-11T07:47:30.901Z,10812
2018-07-11T07:48:31.145Z,11032
2018-07-11T07:49:31.196Z,11180
2018-07-11T07:50:31.419Z,10776
2018-07-11T07:51:30.675Z,10444
2018-07-11T07:52:30.644Z,10072
2018-07-11T07:53:31.144Z,9644
2018-07-11T07:54:31.164Z,9956
2018-07-11T07:55:31.157Z,9172
2018-07-11T07:56:31.164Z,9308
2018-07-11T07:57:31.445Z,9364
2018-07-11T07:58:30.916Z,9232
2018-07-11T07:59:30.968Z,9064
2018-07-11T08:00:31.244Z,8916
2018-07-11T08:01:31.204Z,8888
2018-07-11T08:02:31.166Z,9216
2018-07-11T08:03:31.163Z,10128
2018-07-11T08:04:31.182Z,11000
2018-07-11T08:05:30.924Z,16768
2018-07-11T08:06:31.172Z,16800
2018-07-11T08:07:31.182Z,10384
2018-07-11T08:08:31.176Z,9596
2018-07-11T08:09:31.443Z,9480
2018-07-11T08:10:30.940Z,9740
2018-07-11T08:11:31.221Z,15712
2018-07-11T08:12:31.518Z,10992
2018-07-11T08:13:31.201Z,11784
2018-07-11T08:14:30.966Z,15228
2018-07-11T08:15:31.204Z,12656
2018-07-11T08:16:31.452Z,10424
2018-07-11T08:17:30.969Z,14532
2018-07-11T08:18:30.964Z,12044
2018-07-11T08:19:30.968Z,8888
2018-07-11T08:20:31.211Z,8752
2018-07-11T08:21:31.405Z,8908
2018-07-11T08:22:31.228Z,9388
2018-07-11T08:23:31.231Z,10136
2018-07-11T08:24:31.002Z,16320
2018-07-11T08:25:31.013Z,17248
2018-07-11T08:26:31.229Z,17312
2018-07-11T08:27:31.317Z,17184
2018-07-11T08:28:31.488Z,17184
2018-07-11T08:29:30.998Z,17056
2018-07-11T08:30:31.272Z,17184
2018-07-11T08:31:31.018Z,17280
2018-07-11T08:32:30.769Z,17728
2018-07-11T08:33:31.011Z,18016
2018-07-11T08:34:31.293Z,18560
2018-07-11T08:35:31.546Z,19456
2018-07-11T08:36:31.321Z,19040
2018-07-11T08:37:31.037Z,15372
2018-07-11T08:38:31.282Z,12988
2018-07-11T08:39:31.356Z,13408
2018-07-11T08:40:31.298Z,13864
2018-07-11T08:41:31.578Z,18848
2018-07-11T08:42:31.310Z,18048
2018-07-11T08:43:31.594Z,11156
2018-07-11T08:44:31.579Z,9804
2018-07-11T08:45:31.093Z,8532
2018-07-11T08:46:31.384Z,7364
2018-07-11T08:47:31.344Z,6688
2018-07-11T08:48:30.824Z,5984
2018-07-11T08:49:31.400Z,5496
2018-07-11T08:50:31.370Z,5312
2018-07-11T08:51:31.346Z,5352
2018-07-11T08:52:31.623Z,5512
2018-07-11T08:53:31.385Z,5724
2018-07-11T08:54:31.105Z,6016
2018-07-11T08:55:31.666Z,6388
2018-07-11T08:56:31.369Z,6780
2018-07-11T08:57:31.436Z,7176
2018-07-11T08:58:31.378Z,7576
2018-07-11T08:59:31.448Z,7896
2018-07-11T09:00:31.403Z,8140
2018-07-11T09:01:31.639Z,8284
2018-07-11T09:02:31.398Z,8380
2018-07-11T09:03:31.645Z,8428
2018-07-11T09:04:31.645Z,8472
2018-07-11T09:05:31.658Z,8564
2018-07-11T09:06:31.636Z,8764
2018-07-11T09:07:31.157Z,9008
2018-07-11T09:08:31.383Z,9264
2018-07-11T09:09:31.424Z,9516
2018-07-11T09:10:31.726Z,9756
2018-07-11T09:11:31.417Z,9936
2018-07-11T09:12:31.146Z,10052
2018-07-11T09:13:31.658Z,10136
2018-07-11T09:14:31.406Z,10228
2018-07-11T09:15:31.660Z,10336
2018-07-11T09:16:31.174Z,10304
2018-07-11T09:17:31.432Z,10188
2018-07-11T09:18:31.677Z,10160
2018-07-11T09:19:30.920Z,10256
2018-07-11T09:20:31.443Z,10488
2018-07-11T09:21:31.417Z,10796
2018-07-11T09:22:31.692Z,11272
2018-07-11T09:23:31.430Z,11472
2018-07-11T09:24:31.356Z,11764
2018-07-11T09:25:31.702Z,11916
2018-07-11T09:26:31.692Z,12048
2018-07-11T09:27:31.694Z,11860
2018-07-11T09:28:31.454Z,12400
2018-07-11T09:29:31.188Z,11932
2018-07-11T09:30:31.565Z,11948
2018-07-11T09:31:31.755Z,11800
2018-07-11T09:32:31.453Z,10864
2018-07-11T09:33:31.450Z,10224
2018-07-11T09:34:31.453Z,9884
2018-07-11T09:35:31.709Z,9868
2018-07-11T09:36:31.707Z,10088
2018-07-11T09:37:31.875Z,10164
2018-07-11T09:38:31.490Z,10448
2018-07-11T09:39:30.961Z,10732
2018-07-11T09:40:31.512Z,10784
2018-07-11T09:41:31.223Z,11008
2018-07-11T09:42:31.766Z,14360
2018-07-11T09:43:31.747Z,14228
2018-07-11T09:44:31.487Z,12032
2018-07-11T09:45:31.888Z,10348
2018-07-11T09:46:31.491Z,10348
2018-07-11T09:47:31.493Z,10816
2018-07-11T09:48:31.749Z,10752
2018-07-11T09:49:31.761Z,10084
2018-07-11T09:50:31.496Z,10780
2018-07-11T09:51:31.754Z,13564
2018-07-11T09:52:31.515Z,10284
2018-07-11T09:53:31.261Z,14820
2018-07-11T09:54:31.275Z,12600
2018-07-11T09:55:31.509Z,9824
2018-07-11T09:56:31.773Z,9624
2018-07-11T09:57:31.768Z,9784
2018-07-11T09:58:31.790Z,9608
2018-07-11T09:59:31.809Z,9964
2018-07-11T10:00:31.815Z,9500
2018-07-11T10:01:31.791Z,12032
2018-07-11T10:02:31.541Z,14824
2018-07-11T10:03:31.802Z,14884
2018-07-11T10:04:31.564Z,15272
2018-07-11T10:05:31.573Z,15872
2018-07-11T10:06:31.301Z,11508
2018-07-11T10:07:31.823Z,12256
2018-07-11T10:08:31.815Z,14708
2018-07-11T10:09:31.564Z,16448
2018-07-11T10:10:31.829Z,16704
2018-07-11T10:11:31.319Z,16864
2018-07-11T10:12:31.735Z,16768
2018-07-11T10:13:31.591Z,14988
2018-07-11T10:14:31.341Z,16416
2018-07-11T10:15:31.585Z,12124
2018-07-11T10:16:31.596Z,12040
2018-07-11T10:17:31.340Z,10068
2018-07-11T10:18:31.597Z,9252
2018-07-11T10:19:31.600Z,8776
2018-07-11T10:20:31.856Z,8572
2018-07-11T10:21:31.962Z,8492
2018-07-11T10:22:31.612Z,8500
2018-07-11T10:54:16.140Z,8876
2018-07-11T10:55:16.483Z,8800
2018-07-11T10:56:16.232Z,8820
2018-07-11T10:57:16.521Z,8948
2018-07-11T10:58:15.975Z,9096
2018-07-11T10:59:16.210Z,9176
2018-07-11T11:00:38.716Z,9180
2018-07-11T11:01:16.451Z,9156
2018-07-11T11:02:15.966Z,9148
2018-07-11T11:03:16.236Z,9200
2018-07-11T11:04:15.983Z,9332
2018-07-11T11:05:16.064Z,9492
2018-07-11T11:06:16.543Z,9620
2018-07-11T11:07:16.484Z,9648
2018-07-11T11:08:16.495Z,9604
2018-07-11T11:09:16.261Z,9480
2018-07-11T11:10:16.496Z,9228
2018-07-11T11:11:16.243Z,8768
2018-07-11T11:12:16.593Z,8156
2018-07-11T11:13:16.023Z,7756
2018-07-11T11:14:16.259Z,7596
2018-07-11T11:15:16.325Z,7580
2018-07-11T11:16:16.522Z,7508
2018-07-11T11:17:16.250Z,7332
2018-07-11T11:18:16.308Z,7128
2018-07-11T11:19:16.522Z,6932
2018-07-11T11:20:16.356Z,6756
2018-07-11T11:21:15.772Z,6580
2018-07-11T11:22:16.281Z,6432
2018-07-11T11:23:16.020Z,6332
2018-07-11T11:24:16.547Z,6256
2018-07-11T11:25:16.584Z,6180
2018-07-11T11:26:16.271Z,6144
2018-07-11T11:27:16.540Z,6148
2018-07-11T11:28:16.047Z,6232
2018-07-11T11:29:16.517Z,6384
2018-07-11T11:30:16.577Z,6616
2018-07-11T11:31:16.538Z,6944
2018-07-11T11:32:16.044Z,7344
2018-07-11T11:33:16.067Z,7776
2018-07-11T11:34:16.291Z,8204
2018-07-11T11:35:15.887Z,8604
2018-07-11T11:36:16.070Z,9028
2018-07-11T11:37:16.298Z,9548
2018-07-11T11:38:16.264Z,10072
2018-07-11T11:39:16.620Z,10564
2018-07-11T11:40:16.385Z,11040
2018-07-11T11:41:16.320Z,11496
2018-07-11T11:42:17.659Z,11916
2018-07-11T11:43:16.559Z,12196
2018-07-11T11:44:16.576Z,12440
2018-07-11T11:45:16.159Z,12700
2018-07-11T11:46:16.087Z,12984
2018-07-11T11:47:16.309Z,13248
2018-07-11T11:48:16.085Z,13452
2018-07-11T11:49:16.306Z,13672
2018-07-11T11:50:16.690Z,13860
2018-07-11T11:51:16.078Z,13972
2018-07-11T11:52:16.578Z,14004
2018-07-11T11:53:16.085Z,13928
2018-07-11T11:54:16.648Z,13732
2018-07-11T11:55:16.170Z,13680
2018-07-11T11:56:16.340Z,13260
2018-07-11T11:57:16.593Z,13128
2018-07-11T11:58:16.369Z,13176
2018-07-11T11:59:16.098Z,13216
2018-07-11T12:00:16.779Z,13472
2018-07-11T12:01:16.625Z,13776
2018-07-11T12:02:16.361Z,14224
2018-07-11T12:03:16.114Z,13920
2018-07-11T12:04:16.629Z,13856
2018-07-11T12:05:16.522Z,13268
2018-07-11T12:06:16.373Z,12892
2018-07-11T12:07:16.887Z,12612
2018-07-11T12:08:16.120Z,12364
2018-07-11T12:09:16.345Z,12092
2018-07-11T12:10:15.946Z,11936
2018-07-11T12:11:16.162Z,11760
2018-07-11T12:12:16.150Z,12196
2018-07-11T12:13:16.151Z,11832
2018-07-11T12:14:16.412Z,11980
2018-07-11T12:15:16.274Z,12332
2018-07-11T12:16:16.404Z,13568
2018-07-11T12:17:16.421Z,12632
2018-07-11T12:18:16.674Z,12492
2018-07-11T12:19:16.412Z,12224
2018-07-11T12:20:16.839Z,12016
2018-07-11T12:21:17.083Z,12848
2018-07-11T12:22:16.210Z,12100
2018-07-11T12:23:16.185Z,11940
2018-07-11T12:24:16.690Z,11924
2018-07-11T12:25:16.347Z,11868
2018-07-11T12:26:16.451Z,11584
2018-07-11T12:27:15.959Z,11432
2018-07-11T12:28:16.215Z,11620
2018-07-11T12:29:15.958Z,12564
2018-07-11T12:30:16.962Z,10216
2018-07-11T12:31:16.486Z,9888
2018-07-11T12:32:16.251Z,9592
2018-07-11T12:33:16.742Z,9288
2018-07-11T12:34:16.233Z,8992
2018-07-11T12:35:16.678Z,8728
2018-07-11T12:36:16.729Z,8520
2018-07-11T12:37:16.728Z,8388
2018-07-11T12:38:16.482Z,8400
2018-07-11T12:39:16.490Z,8592
2018-07-11T12:40:16.584Z,8908
2018-07-11T12:41:16.756Z,9296
2018-07-11T12:42:16.755Z,9640
2018-07-11T12:43:16.251Z,9944
2018-07-11T12:44:16.765Z,10228
2018-07-11T12:45:16.941Z,10496
2018-07-11T12:46:16.528Z,10732
2018-07-11T12:47:16.775Z,10936
2018-07-11T12:48:16.534Z,11048
2018-07-11T12:49:17.601Z,11068
2018-07-11T12:50:16.660Z,11028
2018-07-11T12:51:16.340Z,10956
2018-07-11T12:52:16.532Z,10844
2018-07-11T12:53:16.786Z,10648
2018-07-11T12:54:16.542Z,10524
2018-07-11T12:55:16.652Z,10476
2018-07-11T12:56:16.558Z,10488
2018-07-11T12:57:16.570Z,10384
2018-07-11T12:58:16.825Z,10092
2018-07-11T12:59:16.610Z,9692
2018-07-11T13:00:16.659Z,9260
2018-07-11T13:01:16.828Z,8868
2018-07-11T13:02:16.560Z,8564
2018-07-11T13:03:16.621Z,8352
2018-07-11T13:04:16.604Z,8236
2018-07-11T13:05:16.578Z,8172
2018-07-11T13:06:16.352Z,8204
2018-07-11T13:07:16.584Z,8368
2018-07-11T13:08:16.364Z,8564
2018-07-11T13:09:16.588Z,8724
2018-07-11T13:10:16.656Z,8804
2018-07-11T13:11:16.593Z,8888
2018-07-11T13:12:16.903Z,9044
2018-07-11T13:13:16.609Z,9236
2018-07-11T13:14:16.642Z,9384
2018-07-11T13:15:16.476Z,9440
2018-07-11T13:16:17.108Z,9420
2018-07-11T13:17:16.613Z,9364
2018-07-11T13:18:16.129Z,9260
2018-07-11T13:19:16.625Z,9172
2018-07-11T13:20:16.811Z,9144
2018-07-11T13:21:16.630Z,9244
2018-07-11T13:22:16.885Z,9432
2018-07-11T13:23:16.636Z,9620
2018-07-11T13:24:17.337Z,9724
2018-07-11T13:25:16.553Z,9716
2018-07-11T13:26:16.658Z,9736
2018-07-11T13:27:16.410Z,9788
2018-07-11T13:28:16.409Z,9820
2018-07-11T13:29:16.905Z,9896
2018-07-11T13:30:16.852Z,9912
2018-07-11T13:31:16.391Z,9868
2018-07-11T13:32:16.448Z,9776
2018-07-11T13:33:16.455Z,9680
2018-07-11T13:34:16.158Z,9620
2018-07-11T13:35:16.841Z,9616
2018-07-11T13:36:16.659Z,9676
2018-07-11T13:37:16.165Z,9780
2018-07-11T13:38:16.866Z,9908
2018-07-11T13:39:16.683Z,10052
2018-07-11T13:40:16.949Z,10256
2018-07-11T13:41:16.699Z,10520
2018-07-11T13:42:16.435Z,10864
2018-07-11T13:43:16.453Z,11308
2018-07-11T13:44:16.703Z,11788
2018-07-11T13:45:17.008Z,12224
2018-07-11T13:46:16.769Z,12500
2018-07-11T13:47:16.712Z,12652
2018-07-11T13:48:16.737Z,12780
2018-07-11T13:49:16.728Z,12972
2018-07-11T13:50:17.018Z,13196
2018-07-11T13:51:16.682Z,13368
2018-07-11T13:52:16.699Z,13432
2018-07-11T13:53:16.716Z,13436
2018-07-11T13:54:16.946Z,13456
2018-07-11T13:55:17.035Z,13488
2018-07-11T13:56:16.812Z,13544
2018-07-11T13:57:16.484Z,13560
2018-07-11T13:58:16.530Z,13492
2018-07-11T13:59:16.745Z,13220
2018-07-11T14:00:16.690Z,12892
2018-07-11T14:01:16.849Z,12064
2018-07-11T14:02:16.811Z,11472
2018-07-11T14:03:16.757Z,11260
2018-07-11T14:04:16.770Z,10996
2018-07-11T14:05:16.566Z,10720
2018-07-11T14:06:16.757Z,10596
2018-07-11T14:07:16.269Z,10548
2018-07-11T14:08:17.023Z,10520
2018-07-11T14:09:16.521Z,10432
2018-07-11T14:10:17.849Z,10136
2018-07-11T14:11:16.767Z,9708
2018-07-11T14:12:16.804Z,9268
2018-07-11T14:13:16.282Z,9008
2018-07-11T14:14:17.209Z,8900
2018-07-11T14:15:16.794Z,8984
2018-07-11T14:16:17.196Z,9584